sensor_id;sensor_type;location;lat;lon;timestamp;temperature;humidity
17423;DHT22;8829;47.932;7.810;2023-02-18T00:00:26;11.10;99.90
17423;DHT22;8829;47.932;7.810;2023-02-18T00:02:54;11.10;99.90
17423;DHT22;8829;47.932;7.810;2023-02-18T00:05:21;11.10;99.90
17423;DHT22;8829;47.932;7.810;2023-02-18T00:07:47;11.10;99.90
17423;DHT22;8829;47.932;7.810;2023-02-18T00:10:14;11.10;99.90
17423;DHT22;8829;47.932;7.810;2023-02-18T00:12:41;11.20;99.90
17423;DHT22;8829;47.932;7.810;2023-02-18T00:15:09;11.10;99.90
17423;DHT22;8829;47.932;7.810;2023-02-18T00:17:36;11.10;99.90
17423;DHT22;8829;47.932;7.810;2023-02-18T00:20:06;11.10;99.90
17423;DHT22;8829;47.932;7.810;2023-02-18T00:22:33;11.10;99.90
17423;DHT22;8829;47.932;7.810;2023-02-18T00:24:59;11.10;99.90
17423;DHT22;8829;47.932;7.810;2023-02-18T00:27:26;11.10;99.90
17423;DHT22;8829;47.932;7.810;2023-02-18T00:29:53;11.10;99.90
17423;DHT22;8829;47.932;7.810;2023-02-18T00:32:20;11.00;99.90
17423;DHT22;8829;47.932;7.810;2023-02-18T00:34:46;11.00;99.90
17423;DHT22;8829;47.932;7.810;2023-02-18T00:37:14;11.00;99.90
17423;DHT22;8829;47.932;7.810;2023-02-18T00:39:41;11.00;99.90
17423;DHT22;8829;47.932;7.810;2023-02-18T00:42:08;11.00;99.90
17423;DHT22;8829;47.932;7.810;2023-02-18T00:44:35;11.00;99.90
17423;DHT22;8829;47.932;7.810;2023-02-18T00:47:02;11.00;99.90
17423;DHT22;8829;47.932;7.810;2023-02-18T00:49:28;11.10;99.90
17423;DHT22;8829;47.932;7.810;2023-02-18T00:51:55;11.10;99.90
17423;DHT22;8829;47.932;7.810;2023-02-18T00:54:23;11.10;99.90
17423;DHT22;8829;47.932;7.810;2023-02-18T00:56:50;11.10;99.90
17423;DHT22;8829;47.932;7.810;2023-02-18T00:59:17;11.10;99.90
17423;DHT22;8829;47.932;7.810;2023-02-18T01:01:44;11.10;99.90
17423;DHT22;8829;47.932;7.810;2023-02-18T01:04:11;11.10;99.90
17423;DHT22;8829;47.932;7.810;2023-02-18T01:06:38;11.10;99.90
17423;DHT22;8829;47.932;7.810;2023-02-18T01:09:05;11.10;99.90
17423;DHT22;8829;47.932;7.810;2023-02-18T01:11:33;11.10;99.90
17423;DHT22;8829;47.932;7.810;2023-02-18T01:14:00;11.10;99.90
17423;DHT22;8829;47.932;7.810;2023-02-18T01:16:27;11.10;99.90
17423;DHT22;8829;47.932;7.810;2023-02-18T01:18:53;11.10;99.90
17423;DHT22;8829;47.932;7.810;2023-02-18T01:21:20;11.20;99.90
17423;DHT22;8829;47.932;7.810;2023-02-18T01:23:47;11.20;99.90
17423;DHT22;8829;47.932;7.810;2023-02-18T01:26:14;11.10;99.90
17423;DHT22;8829;47.932;7.810;2023-02-18T01:28:43;11.10;99.90
17423;DHT22;8829;47.932;7.810;2023-02-18T01:31:11;11.10;99.90
17423;DHT22;8829;47.932;7.810;2023-02-18T01:33:39;11.10;99.90
17423;DHT22;8829;47.932;7.810;2023-02-18T01:36:07;11.10;99.90
17423;DHT22;8829;47.932;7.810;2023-02-18T01:38:34;11.10;99.90
17423;DHT22;8829;47.932;7.810;2023-02-18T01:41:01;11.10;99.90
17423;DHT22;8829;47.932;7.810;2023-02-18T01:43:28;11.10;99.90
17423;DHT22;8829;47.932;7.810;2023-02-18T01:46:03;11.10;99.90
17423;DHT22;8829;47.932;7.810;2023-02-18T01:48:34;11.20;99.90
17423;DHT22;8829;47.932;7.810;2023-02-18T01:51:04;11.20;99.90
17423;DHT22;8829;47.932;7.810;2023-02-18T01:53:41;11.10;99.90
17423;DHT22;8829;47.932;7.810;2023-02-18T01:56:13;11.10;99.90
17423;DHT22;8829;47.932;7.810;2023-02-18T01:58:42;11.10;99.90
17423;DHT22;8829;47.932;7.810;2023-02-18T02:01:10;11.10;99.90
17423;DHT22;8829;47.932;7.810;2023-02-18T02:03:37;11.10;99.90
17423;DHT22;8829;47.932;7.810;2023-02-18T02:06:11;11.10;99.90
17423;DHT22;8829;47.932;7.810;2023-02-18T02:08:39;11.10;99.90
17423;DHT22;8829;47.932;7.810;2023-02-18T02:11:12;11.10;99.90
17423;DHT22;8829;47.932;7.810;2023-02-18T02:13:56;11.10;99.90
17423;DHT22;8829;47.932;7.810;2023-02-18T02:16:34;11.10;99.90
17423;DHT22;8829;47.932;7.810;2023-02-18T02:19:19;11.10;99.90
17423;DHT22;8829;47.932;7.810;2023-02-18T02:22:16;11.10;99.90
17423;DHT22;8829;47.932;7.810;2023-02-18T02:24:59;11.10;99.90
17423;DHT22;8829;47.932;7.810;2023-02-18T02:27:45;11.20;99.90
17423;DHT22;8829;47.932;7.810;2023-02-18T02:30:50;11.10;99.90
17423;DHT22;8829;47.932;7.810;2023-02-18T02:34:03;11.20;99.90
17423;DHT22;8829;47.932;7.810;2023-02-18T02:36:36;11.20;99.90
17423;DHT22;8829;47.932;7.810;2023-02-18T02:39:09;11.10;99.90
17423;DHT22;8829;47.932;7.810;2023-02-18T02:41:45;11.20;99.90
17423;DHT22;8829;47.932;7.810;2023-02-18T02:44:19;11.10;99.90
17423;DHT22;8829;47.932;7.810;2023-02-18T02:46:48;11.10;99.90
17423;DHT22;8829;47.932;7.810;2023-02-18T02:49:29;11.10;99.90
17423;DHT22;8829;47.932;7.810;2023-02-18T02:52:03;11.10;99.90
17423;DHT22;8829;47.932;7.810;2023-02-18T02:54:31;11.10;99.90
17423;DHT22;8829;47.932;7.810;2023-02-18T02:57:05;11.10;99.90
17423;DHT22;8829;47.932;7.810;2023-02-18T02:59:34;11.10;99.90
17423;DHT22;8829;47.932;7.810;2023-02-18T03:02:12;11.10;99.90
17423;DHT22;8829;47.932;7.810;2023-02-18T03:05:07;11.20;99.90
17423;DHT22;8829;47.932;7.810;2023-02-18T03:07:55;11.20;99.90
17423;DHT22;8829;47.932;7.810;2023-02-18T03:10:35;11.20;99.90
17423;DHT22;8829;47.932;7.810;2023-02-18T03:13:11;11.10;99.90
17423;DHT22;8829;47.932;7.810;2023-02-18T03:15:48;11.10;99.90
17423;DHT22;8829;47.932;7.810;2023-02-18T03:18:20;11.10;99.90
17423;DHT22;8829;47.932;7.810;2023-02-18T03:20:52;11.10;99.90
17423;DHT22;8829;47.932;7.810;2023-02-18T03:23:25;11.20;99.90
17423;DHT22;8829;47.932;7.810;2023-02-18T03:25:53;11.20;99.90
17423;DHT22;8829;47.932;7.810;2023-02-18T03:28:22;11.20;99.90
17423;DHT22;8829;47.932;7.810;2023-02-18T03:30:52;11.20;99.90
17423;DHT22;8829;47.932;7.810;2023-02-18T03:33:27;11.20;99.90
17423;DHT22;8829;47.932;7.810;2023-02-18T03:35:55;11.30;99.90
17423;DHT22;8829;47.932;7.810;2023-02-18T03:38:28;11.30;99.90
17423;DHT22;8829;47.932;7.810;2023-02-18T03:40:55;11.20;99.90
17423;DHT22;8829;47.932;7.810;2023-02-18T03:43:22;11.20;99.90
17423;DHT22;8829;47.932;7.810;2023-02-18T03:45:49;11.20;99.90
17423;DHT22;8829;47.932;7.810;2023-02-18T03:48:16;11.20;99.90
17423;DHT22;8829;47.932;7.810;2023-02-18T03:50:43;11.20;99.90
17423;DHT22;8829;47.932;7.810;2023-02-18T03:53:10;11.20;99.90
17423;DHT22;8829;47.932;7.810;2023-02-18T03:55:38;11.20;99.90
17423;DHT22;8829;47.932;7.810;2023-02-18T03:58:05;11.20;99.90
17423;DHT22;8829;47.932;7.810;2023-02-18T04:00:32;11.20;99.90
17423;DHT22;8829;47.932;7.810;2023-02-18T04:02:58;11.20;99.90
17423;DHT22;8829;47.932;7.810;2023-02-18T04:05:25;11.20;99.90
17423;DHT22;8829;47.932;7.810;2023-02-18T04:07:52;11.20;99.90
17423;DHT22;8829;47.932;7.810;2023-02-18T04:10:19;11.20;99.90
17423;DHT22;8829;47.932;7.810;2023-02-18T04:12:48;11.20;99.90
17423;DHT22;8829;47.932;7.810;2023-02-18T04:15:15;11.20;99.90
17423;DHT22;8829;47.932;7.810;2023-02-18T04:17:42;11.20;99.90
17423;DHT22;8829;47.932;7.810;2023-02-18T04:20:09;11.20;99.90
17423;DHT22;8829;47.932;7.810;2023-02-18T04:22:36;11.10;99.90
17423;DHT22;8829;47.932;7.810;2023-02-18T04:25:03;11.20;99.90
17423;DHT22;8829;47.932;7.810;2023-02-18T04:27:29;11.10;99.90
17423;DHT22;8829;47.932;7.810;2023-02-18T04:29:58;11.10;99.90
17423;DHT22;8829;47.932;7.810;2023-02-18T04:32:24;11.10;99.90
17423;DHT22;8829;47.932;7.810;2023-02-18T04:34:51;11.10;99.90
17423;DHT22;8829;47.932;7.810;2023-02-18T04:37:18;11.10;99.90
17423;DHT22;8829;47.932;7.810;2023-02-18T04:39:45;11.10;99.90
17423;DHT22;8829;47.932;7.810;2023-02-18T04:42:11;11.10;99.90
17423;DHT22;8829;47.932;7.810;2023-02-18T04:44:38;11.10;99.90
17423;DHT22;8829;47.932;7.810;2023-02-18T04:47:06;11.10;99.90
17423;DHT22;8829;47.932;7.810;2023-02-18T04:49:33;11.10;99.90
17423;DHT22;8829;47.932;7.810;2023-02-18T04:52:00;11.10;99.90
17423;DHT22;8829;47.932;7.810;2023-02-18T04:54:27;11.10;99.90
17423;DHT22;8829;47.932;7.810;2023-02-18T04:56:54;11.10;99.90
17423;DHT22;8829;47.932;7.810;2023-02-18T04:59:20;11.20;99.90
17423;DHT22;8829;47.932;7.810;2023-02-18T05:01:47;11.20;99.90
17423;DHT22;8829;47.932;7.810;2023-02-18T05:04:15;11.20;99.90
17423;DHT22;8829;47.932;7.810;2023-02-18T05:06:43;11.20;99.90
17423;DHT22;8829;47.932;7.810;2023-02-18T05:09:10;11.20;99.90
17423;DHT22;8829;47.932;7.810;2023-02-18T05:11:37;11.20;99.90
17423;DHT22;8829;47.932;7.810;2023-02-18T05:14:04;11.20;99.90
17423;DHT22;8829;47.932;7.810;2023-02-18T05:16:31;11.20;99.90
17423;DHT22;8829;47.932;7.810;2023-02-18T05:18:57;11.20;99.90
17423;DHT22;8829;47.932;7.810;2023-02-18T05:21:26;11.20;99.90
17423;DHT22;8829;47.932;7.810;2023-02-18T05:23:52;11.10;99.90
17423;DHT22;8829;47.932;7.810;2023-02-18T05:26:19;11.10;99.90
17423;DHT22;8829;47.932;7.810;2023-02-18T05:28:46;11.10;99.90
17423;DHT22;8829;47.932;7.810;2023-02-18T05:31:12;11.10;99.90
17423;DHT22;8829;47.932;7.810;2023-02-18T05:33:39;11.10;99.90
17423;DHT22;8829;47.932;7.810;2023-02-18T05:36:06;11.10;99.90
17423;DHT22;8829;47.932;7.810;2023-02-18T05:38:35;11.10;99.90
17423;DHT22;8829;47.932;7.810;2023-02-18T05:41:01;11.10;99.90
17423;DHT22;8829;47.932;7.810;2023-02-18T05:43:28;11.10;99.90
17423;DHT22;8829;47.932;7.810;2023-02-18T05:45:55;11.10;99.90
17423;DHT22;8829;47.932;7.810;2023-02-18T05:48:21;11.10;99.90
17423;DHT22;8829;47.932;7.810;2023-02-18T05:50:48;11.10;99.90
17423;DHT22;8829;47.932;7.810;2023-02-18T05:53:18;11.10;99.90
17423;DHT22;8829;47.932;7.810;2023-02-18T05:55:46;11.10;99.90
17423;DHT22;8829;47.932;7.810;2023-02-18T05:58:13;11.20;99.90
17423;DHT22;8829;47.932;7.810;2023-02-18T06:00:41;11.10;99.90
17423;DHT22;8829;47.932;7.810;2023-02-18T06:03:08;11.20;99.90
17423;DHT22;8829;47.932;7.810;2023-02-18T06:05:34;11.20;99.90
17423;DHT22;8829;47.932;7.810;2023-02-18T06:08:01;11.20;99.90
17423;DHT22;8829;47.932;7.810;2023-02-18T06:10:28;11.20;99.90
17423;DHT22;8829;47.932;7.810;2023-02-18T06:12:56;11.20;99.90
17423;DHT22;8829;47.932;7.810;2023-02-18T06:15:22;11.20;99.90
17423;DHT22;8829;47.932;7.810;2023-02-18T06:17:49;11.20;99.90
17423;DHT22;8829;47.932;7.810;2023-02-18T06:20:16;11.20;99.90
17423;DHT22;8829;47.932;7.810;2023-02-18T06:22:42;11.20;99.90
17423;DHT22;8829;47.932;7.810;2023-02-18T06:25:09;11.20;99.90
17423;DHT22;8829;47.932;7.810;2023-02-18T06:27:36;11.20;99.90
17423;DHT22;8829;47.932;7.810;2023-02-18T06:30:05;11.20;99.90
17423;DHT22;8829;47.932;7.810;2023-02-18T06:32:32;11.20;99.90
17423;DHT22;8829;47.932;7.810;2023-02-18T06:34:59;11.20;99.90
17423;DHT22;8829;47.932;7.810;2023-02-18T06:37:25;11.20;99.90
17423;DHT22;8829;47.932;7.810;2023-02-18T06:39:52;11.20;99.90
17423;DHT22;8829;47.932;7.810;2023-02-18T06:42:19;11.20;99.90
17423;DHT22;8829;47.932;7.810;2023-02-18T06:44:45;11.30;99.90
17423;DHT22;8829;47.932;7.810;2023-02-18T06:47:13;11.30;99.90
17423;DHT22;8829;47.932;7.810;2023-02-18T06:49:40;11.30;99.90
17423;DHT22;8829;47.932;7.810;2023-02-18T06:52:07;11.30;99.90
17423;DHT22;8829;47.932;7.810;2023-02-18T06:54:33;11.30;99.90
17423;DHT22;8829;47.932;7.810;2023-02-18T06:57:00;11.30;99.90
17423;DHT22;8829;47.932;7.810;2023-02-18T06:59:27;11.30;99.90
17423;DHT22;8829;47.932;7.810;2023-02-18T07:01:54;11.30;99.90
17423;DHT22;8829;47.932;7.810;2023-02-18T07:04:22;11.30;99.90
17423;DHT22;8829;47.932;7.810;2023-02-18T07:06:48;11.30;99.90
17423;DHT22;8829;47.932;7.810;2023-02-18T07:09:15;11.30;99.90
17423;DHT22;8829;47.932;7.810;2023-02-18T07:11:42;11.40;99.90
17423;DHT22;8829;47.932;7.810;2023-02-18T07:14:08;11.70;99.90
17423;DHT22;8829;47.932;7.810;2023-02-18T07:16:35;11.40;99.90
17423;DHT22;8829;47.932;7.810;2023-02-18T07:19:02;11.50;99.90
17423;DHT22;8829;47.932;7.810;2023-02-18T07:21:30;11.40;99.90
17423;DHT22;8829;47.932;7.810;2023-02-18T07:23:56;11.40;99.90
17423;DHT22;8829;47.932;7.810;2023-02-18T07:26:23;11.40;99.90
17423;DHT22;8829;47.932;7.810;2023-02-18T07:28:50;11.40;99.90
17423;DHT22;8829;47.932;7.810;2023-02-18T07:31:16;11.40;99.90
17423;DHT22;8829;47.932;7.810;2023-02-18T07:33:43;11.40;99.90
17423;DHT22;8829;47.932;7.810;2023-02-18T07:36:10;11.50;99.90
17423;DHT22;8829;47.932;7.810;2023-02-18T07:38:38;11.50;99.90
17423;DHT22;8829;47.932;7.810;2023-02-18T07:41:04;11.50;99.90
17423;DHT22;8829;47.932;7.810;2023-02-18T07:43:31;11.50;99.90
17423;DHT22;8829;47.932;7.810;2023-02-18T07:45:58;11.60;99.90
17423;DHT22;8829;47.932;7.810;2023-02-18T07:48:24;11.60;99.90
17423;DHT22;8829;47.932;7.810;2023-02-18T07:50:51;11.70;99.90
17423;DHT22;8829;47.932;7.810;2023-02-18T07:53:18;11.70;99.90
17423;DHT22;8829;47.932;7.810;2023-02-18T07:55:47;11.70;99.90
17423;DHT22;8829;47.932;7.810;2023-02-18T07:58:15;11.70;99.90
17423;DHT22;8829;47.932;7.810;2023-02-18T08:00:42;11.70;99.90
17423;DHT22;8829;47.932;7.810;2023-02-18T08:03:08;11.80;99.90
17423;DHT22;8829;47.932;7.810;2023-02-18T08:05:35;11.80;99.90
17423;DHT22;8829;47.932;7.810;2023-02-18T08:08:02;11.80;99.90
17423;DHT22;8829;47.932;7.810;2023-02-18T08:10:29;11.80;99.90
17423;DHT22;8829;47.932;7.810;2023-02-18T08:12:57;11.80;99.90
17423;DHT22;8829;47.932;7.810;2023-02-18T08:15:24;11.80;99.90
17423;DHT22;8829;47.932;7.810;2023-02-18T08:17:51;11.80;99.90
17423;DHT22;8829;47.932;7.810;2023-02-18T08:20:18;11.80;99.90
17423;DHT22;8829;47.932;7.810;2023-02-18T08:22:45;11.80;99.90
17423;DHT22;8829;47.932;7.810;2023-02-18T08:25:11;11.90;99.90
17423;DHT22;8829;47.932;7.810;2023-02-18T08:27:38;11.90;99.90
17423;DHT22;8829;47.932;7.810;2023-02-18T08:30:07;11.80;99.90
17423;DHT22;8829;47.932;7.810;2023-02-18T08:32:35;11.80;99.90
17423;DHT22;8829;47.932;7.810;2023-02-18T08:35:02;11.80;99.90
17423;DHT22;8829;47.932;7.810;2023-02-18T08:37:29;11.70;99.90
17423;DHT22;8829;47.932;7.810;2023-02-18T08:39:56;11.70;99.90
17423;DHT22;8829;47.932;7.810;2023-02-18T08:42:22;11.80;99.90
17423;DHT22;8829;47.932;7.810;2023-02-18T08:44:49;11.80;99.90
17423;DHT22;8829;47.932;7.810;2023-02-18T08:47:17;11.80;99.90
17423;DHT22;8829;47.932;7.810;2023-02-18T08:49:44;11.90;99.90
17423;DHT22;8829;47.932;7.810;2023-02-18T08:52:10;11.90;99.90
17423;DHT22;8829;47.932;7.810;2023-02-18T08:54:37;11.90;99.90
17423;DHT22;8829;47.932;7.810;2023-02-18T08:57:04;11.90;99.90
17423;DHT22;8829;47.932;7.810;2023-02-18T08:59:31;12.00;99.90
17423;DHT22;8829;47.932;7.810;2023-02-18T09:01:57;12.00;99.90
17423;DHT22;8829;47.932;7.810;2023-02-18T09:04:25;12.00;99.90
17423;DHT22;8829;47.932;7.810;2023-02-18T09:06:52;12.00;99.90
17423;DHT22;8829;47.932;7.810;2023-02-18T09:09:19;12.00;99.90
17423;DHT22;8829;47.932;7.810;2023-02-18T09:11:46;12.00;99.90
17423;DHT22;8829;47.932;7.810;2023-02-18T09:14:13;12.00;99.90
17423;DHT22;8829;47.932;7.810;2023-02-18T09:16:41;12.00;99.90
17423;DHT22;8829;47.932;7.810;2023-02-18T09:19:08;12.00;99.90
17423;DHT22;8829;47.932;7.810;2023-02-18T09:21:36;12.00;99.90
17423;DHT22;8829;47.932;7.810;2023-02-18T09:24:03;12.00;99.90
17423;DHT22;8829;47.932;7.810;2023-02-18T09:26:30;12.00;99.90
17423;DHT22;8829;47.932;7.810;2023-02-18T09:28:57;12.10;99.90
17423;DHT22;8829;47.932;7.810;2023-02-18T09:31:25;12.10;99.90
17423;DHT22;8829;47.932;7.810;2023-02-18T09:33:54;12.00;99.90
17423;DHT22;8829;47.932;7.810;2023-02-18T09:36:21;12.10;99.90
17423;DHT22;8829;47.932;7.810;2023-02-18T09:38:50;12.10;99.90
17423;DHT22;8829;47.932;7.810;2023-02-18T09:41:26;12.10;99.90
17423;DHT22;8829;47.932;7.810;2023-02-18T09:43:57;12.10;99.90
17423;DHT22;8829;47.932;7.810;2023-02-18T09:46:26;12.10;99.90
17423;DHT22;8829;47.932;7.810;2023-02-18T09:48:54;12.10;99.90
17423;DHT22;8829;47.932;7.810;2023-02-18T09:51:21;12.10;99.90
17423;DHT22;8829;47.932;7.810;2023-02-18T09:53:49;12.10;99.90
17423;DHT22;8829;47.932;7.810;2023-02-18T09:56:21;12.10;99.90
17423;DHT22;8829;47.932;7.810;2023-02-18T09:58:49;12.10;99.90
17423;DHT22;8829;47.932;7.810;2023-02-18T10:01:23;12.20;99.90
17423;DHT22;8829;47.932;7.810;2023-02-18T10:03:51;12.30;99.90
17423;DHT22;8829;47.932;7.810;2023-02-18T10:06:22;12.50;99.90
17423;DHT22;8829;47.932;7.810;2023-02-18T10:08:53;12.50;99.90
17423;DHT22;8829;47.932;7.810;2023-02-18T10:11:23;12.60;99.90
17423;DHT22;8829;47.932;7.810;2023-02-18T10:13:54;12.70;99.90
17423;DHT22;8829;47.932;7.810;2023-02-18T10:16:23;12.60;99.90
17423;DHT22;8829;47.932;7.810;2023-02-18T10:18:53;12.70;99.90
17423;DHT22;8829;47.932;7.810;2023-02-18T10:21:23;12.70;99.90
17423;DHT22;8829;47.932;7.810;2023-02-18T10:23:57;12.80;99.90
17423;DHT22;8829;47.932;7.810;2023-02-18T10:26:26;12.90;99.90
17423;DHT22;8829;47.932;7.810;2023-02-18T10:28:54;13.00;99.90
17423;DHT22;8829;47.932;7.810;2023-02-18T10:31:28;13.20;99.90
17423;DHT22;8829;47.932;7.810;2023-02-18T10:34:02;13.40;99.90
17423;DHT22;8829;47.932;7.810;2023-02-18T10:36:36;13.50;99.90
17423;DHT22;8829;47.932;7.810;2023-02-18T10:42:22;13.50;99.90
17423;DHT22;8829;47.932;7.810;2023-02-18T10:45:00;13.40;99.90
17423;DHT22;8829;47.932;7.810;2023-02-18T10:47:36;13.40;99.90
17423;DHT22;8829;47.932;7.810;2023-02-18T10:50:09;13.60;99.90
17423;DHT22;8829;47.932;7.810;2023-02-18T10:52:40;13.60;99.90
17423;DHT22;8829;47.932;7.810;2023-02-18T10:55:11;13.60;99.90
17423;DHT22;8829;47.932;7.810;2023-02-18T10:57:47;13.70;99.90
17423;DHT22;8829;47.932;7.810;2023-02-18T11:00:17;13.80;99.90
17423;DHT22;8829;47.932;7.810;2023-02-18T11:02:45;13.80;99.90
17423;DHT22;8829;47.932;7.810;2023-02-18T11:05:22;13.80;99.90
17423;DHT22;8829;47.932;7.810;2023-02-18T11:07:53;13.80;99.90
17423;DHT22;8829;47.932;7.810;2023-02-18T11:10:24;13.80;99.90
17423;DHT22;8829;47.932;7.810;2023-02-18T11:12:55;13.90;99.90
17423;DHT22;8829;47.932;7.810;2023-02-18T11:15:24;13.90;99.90
17423;DHT22;8829;47.932;7.810;2023-02-18T11:17:53;13.90;99.90
17423;DHT22;8829;47.932;7.810;2023-02-18T11:20:27;13.80;99.90
17423;DHT22;8829;47.932;7.810;2023-02-18T11:23:15;13.80;99.90
17423;DHT22;8829;47.932;7.810;2023-02-18T11:25:53;13.80;99.90
17423;DHT22;8829;47.932;7.810;2023-02-18T11:28:32;13.90;99.90
17423;DHT22;8829;47.932;7.810;2023-02-18T11:31:03;13.80;99.90
17423;DHT22;8829;47.932;7.810;2023-02-18T11:33:33;13.90;99.90
17423;DHT22;8829;47.932;7.810;2023-02-18T11:36:04;14.00;99.90
17423;DHT22;8829;47.932;7.810;2023-02-18T11:38:42;13.90;99.90
17423;DHT22;8829;47.932;7.810;2023-02-18T11:41:13;14.00;99.90
17423;DHT22;8829;47.932;7.810;2023-02-18T11:43:43;14.00;99.90
17423;DHT22;8829;47.932;7.810;2023-02-18T11:46:13;14.00;99.90
17423;DHT22;8829;47.932;7.810;2023-02-18T11:48:40;14.00;99.90
17423;DHT22;8829;47.932;7.810;2023-02-18T11:51:15;13.90;99.90
17423;DHT22;8829;47.932;7.810;2023-02-18T11:53:58;13.90;99.90
17423;DHT22;8829;47.932;7.810;2023-02-18T11:56:28;13.90;99.90
17423;DHT22;8829;47.932;7.810;2023-02-18T11:58:56;13.90;99.90
17423;DHT22;8829;47.932;7.810;2023-02-18T12:01:38;13.80;99.90
17423;DHT22;8829;47.932;7.810;2023-02-18T12:04:12;13.90;99.90
17423;DHT22;8829;47.932;7.810;2023-02-18T12:06:44;13.80;99.90
17423;DHT22;8829;47.932;7.810;2023-02-18T12:09:23;13.80;99.90
17423;DHT22;8829;47.932;7.810;2023-02-18T12:11:56;13.80;99.90
17423;DHT22;8829;47.932;7.810;2023-02-18T12:14:24;13.70;99.90
17423;DHT22;8829;47.932;7.810;2023-02-18T12:17:06;13.70;99.90
17423;DHT22;8829;47.932;7.810;2023-02-18T12:19:53;13.50;99.90
17423;DHT22;8829;47.932;7.810;2023-02-18T12:22:33;13.40;99.90
17423;DHT22;8829;47.932;7.810;2023-02-18T12:25:16;13.40;99.90
17423;DHT22;8829;47.932;7.810;2023-02-18T12:27:54;13.40;99.90
17423;DHT22;8829;47.932;7.810;2023-02-18T12:30:38;13.50;99.90
17423;DHT22;8829;47.932;7.810;2023-02-18T12:33:17;13.50;99.90
17423;DHT22;8829;47.932;7.810;2023-02-18T12:35:55;13.40;99.90
17423;DHT22;8829;47.932;7.810;2023-02-18T12:38:37;13.50;99.90
17423;DHT22;8829;47.932;7.810;2023-02-18T12:41:17;13.50;99.90
17423;DHT22;8829;47.932;7.810;2023-02-18T12:43:55;13.50;99.90
17423;DHT22;8829;47.932;7.810;2023-02-18T12:46:43;13.40;99.90
17423;DHT22;8829;47.932;7.810;2023-02-18T12:49:31;13.40;99.90
17423;DHT22;8829;47.932;7.810;2023-02-18T12:52:11;13.50;99.90
17423;DHT22;8829;47.932;7.810;2023-02-18T12:55:03;13.50;99.90
17423;DHT22;8829;47.932;7.810;2023-02-18T12:57:38;13.60;99.90
17423;DHT22;8829;47.932;7.810;2023-02-18T13:00:37;13.60;99.90
17423;DHT22;8829;47.932;7.810;2023-02-18T13:03:32;13.60;99.90
17423;DHT22;8829;47.932;7.810;2023-02-18T13:06:12;13.60;99.90
17423;DHT22;8829;47.932;7.810;2023-02-18T13:08:51;13.60;99.90
17423;DHT22;8829;47.932;7.810;2023-02-18T13:11:27;13.50;99.90
17423;DHT22;8829;47.932;7.810;2023-02-18T13:14:01;13.50;99.90
17423;DHT22;8829;47.932;7.810;2023-02-18T13:16:32;13.30;99.90
17423;DHT22;8829;47.932;7.810;2023-02-18T13:19:03;13.30;99.90
17423;DHT22;8829;47.932;7.810;2023-02-18T13:21:36;13.30;99.90
17423;DHT22;8829;47.932;7.810;2023-02-18T13:24:08;13.40;99.90
17423;DHT22;8829;47.932;7.810;2023-02-18T13:26:36;13.40;99.90
17423;DHT22;8829;47.932;7.810;2023-02-18T13:29:16;13.40;99.90
17423;DHT22;8829;47.932;7.810;2023-02-18T13:32:00;13.30;99.90
17423;DHT22;8829;47.932;7.810;2023-02-18T13:34:31;13.30;99.90
17423;DHT22;8829;47.932;7.810;2023-02-18T13:37:05;13.30;99.90
17423;DHT22;8829;47.932;7.810;2023-02-18T13:39:34;13.40;99.90
17423;DHT22;8829;47.932;7.810;2023-02-18T13:42:34;13.40;99.90
17423;DHT22;8829;47.932;7.810;2023-02-18T13:45:26;13.40;99.90
17423;DHT22;8829;47.932;7.810;2023-02-18T13:47:56;13.40;99.90
17423;DHT22;8829;47.932;7.810;2023-02-18T13:53:21;13.50;99.90
17423;DHT22;8829;47.932;7.810;2023-02-18T13:56:09;13.60;99.90
17423;DHT22;8829;47.932;7.810;2023-02-18T13:58:48;13.60;99.90
17423;DHT22;8829;47.932;7.810;2023-02-18T14:01:29;13.60;99.90
17423;DHT22;8829;47.932;7.810;2023-02-18T14:04:34;13.60;99.90
17423;DHT22;8829;47.932;7.810;2023-02-18T14:07:25;13.70;99.90
17423;DHT22;8829;47.932;7.810;2023-02-18T14:09:53;13.70;99.90
17423;DHT22;8829;47.932;7.810;2023-02-18T14:12:34;13.60;99.90
17423;DHT22;8829;47.932;7.810;2023-02-18T14:17:48;13.70;99.90
17423;DHT22;8829;47.932;7.810;2023-02-18T14:20:47;13.70;99.90
17423;DHT22;8829;47.932;7.810;2023-02-18T14:26:23;13.70;99.90
17423;DHT22;8829;47.932;7.810;2023-02-18T14:28:54;13.70;99.90
17423;DHT22;8829;47.932;7.810;2023-02-18T14:31:32;13.70;99.90
17423;DHT22;8829;47.932;7.810;2023-02-18T14:34:29;13.70;99.90
17423;DHT22;8829;47.932;7.810;2023-02-18T14:37:10;13.70;99.90
17423;DHT22;8829;47.932;7.810;2023-02-18T14:39:51;13.70;99.90
17423;DHT22;8829;47.932;7.810;2023-02-18T14:42:29;13.70;99.90
17423;DHT22;8829;47.932;7.810;2023-02-18T14:45:16;13.70;99.90
17423;DHT22;8829;47.932;7.810;2023-02-18T14:47:55;13.60;99.90
17423;DHT22;8829;47.932;7.810;2023-02-18T14:50:31;13.60;99.90
17423;DHT22;8829;47.932;7.810;2023-02-18T14:53:05;13.60;99.90
17423;DHT22;8829;47.932;7.810;2023-02-18T14:55:36;13.60;99.90
17423;DHT22;8829;47.932;7.810;2023-02-18T14:58:06;13.60;99.90
17423;DHT22;8829;47.932;7.810;2023-02-18T15:00:35;13.50;99.90
17423;DHT22;8829;47.932;7.810;2023-02-18T15:03:12;13.40;99.90
17423;DHT22;8829;47.932;7.810;2023-02-18T15:05:40;13.30;99.90
17423;DHT22;8829;47.932;7.810;2023-02-18T15:08:14;13.20;99.90
17423;DHT22;8829;47.932;7.810;2023-02-18T15:10:43;13.20;99.90
17423;DHT22;8829;47.932;7.810;2023-02-18T15:13:15;13.20;99.90
17423;DHT22;8829;47.932;7.810;2023-02-18T15:15:43;13.90;99.90
17423;DHT22;8829;47.932;7.810;2023-02-18T15:18:19;13.30;99.90
17423;DHT22;8829;47.932;7.810;2023-02-18T15:20:47;13.30;99.90
17423;DHT22;8829;47.932;7.810;2023-02-18T15:23:16;13.30;99.90
17423;DHT22;8829;47.932;7.810;2023-02-18T15:25:48;13.30;99.90
17423;DHT22;8829;47.932;7.810;2023-02-18T15:28:21;13.30;99.90
17423;DHT22;8829;47.932;7.810;2023-02-18T15:30:48;13.30;99.90
17423;DHT22;8829;47.932;7.810;2023-02-18T15:33:17;13.30;99.90
17423;DHT22;8829;47.932;7.810;2023-02-18T15:35:44;13.20;99.90
17423;DHT22;8829;47.932;7.810;2023-02-18T15:38:15;13.20;99.90
17423;DHT22;8829;47.932;7.810;2023-02-18T15:40:43;13.20;99.90
17423;DHT22;8829;47.932;7.810;2023-02-18T15:43:15;13.10;99.90
17423;DHT22;8829;47.932;7.810;2023-02-18T15:45:44;13.10;99.90
17423;DHT22;8829;47.932;7.810;2023-02-18T15:48:18;13.10;99.90
17423;DHT22;8829;47.932;7.810;2023-02-18T15:50:50;13.10;99.90
17423;DHT22;8829;47.932;7.810;2023-02-18T15:53:20;13.10;99.90
17423;DHT22;8829;47.932;7.810;2023-02-18T15:55:49;13.00;99.90
17423;DHT22;8829;47.932;7.810;2023-02-18T15:58:21;13.00;99.90
17423;DHT22;8829;47.932;7.810;2023-02-18T16:00:50;13.00;99.90
17423;DHT22;8829;47.932;7.810;2023-02-18T16:03:21;12.90;99.90
17423;DHT22;8829;47.932;7.810;2023-02-18T16:05:48;12.80;99.90
17423;DHT22;8829;47.932;7.810;2023-02-18T16:08:20;12.80;99.90
17423;DHT22;8829;47.932;7.810;2023-02-18T16:10:53;12.80;99.90
17423;DHT22;8829;47.932;7.810;2023-02-18T16:13:20;12.80;99.90
17423;DHT22;8829;47.932;7.810;2023-02-18T16:15:49;12.80;99.90
17423;DHT22;8829;47.932;7.810;2023-02-18T16:18:28;12.80;99.90
17423;DHT22;8829;47.932;7.810;2023-02-18T16:20:58;12.70;99.90